HCMM

Aden Adde International Airport

Mogadishu, Somalia
METAR HCMM 190400Z 17010KT 9999 SCT020 26/22 Q1012
Observed Flight Rules
Sep-19 @ 04:00 UTC (an hour ago) Visual Flight Rules
Wind Visibility Clouds
170° at 10 knots 10,000+ meters
  • Scattered at 2,000' AGL
Temperatures Readings
Current 26°C / 79°F
Dewpoint 22°C / 72°F
Humidity 79%
Altimeter 29.88" Hg
Pressure 1012 hPa
Elevation 9
METAR HCMM 190400Z 17010KT 9999 SCT020 26/22 Q1012
Observed Flight Rules
Sep-19 @ 04:00 UTC
(an hour ago)
VFR
Wind Visibility
170° at 10 knots 10,000+ meters
Clouds
  • Scattered at 2,000' AGL
Temperature Dewpoint
26°C / 79°F 22°C / 72°F
Humidity Altimeter Pressure
79% 29.88" Hg 1012 hPa